createdAt,value
2017-11-27T00:00:34.003Z,2.30
2017-11-27T00:05:36.564Z,2.30
2017-11-27T00:10:39.123Z,2.30
2017-11-27T00:15:41.664Z,2.30
2017-11-27T00:20:44.233Z,2.30
2017-11-27T00:25:46.790Z,2.30
2017-11-27T00:30:49.355Z,2.30
2017-11-27T00:35:51.933Z,2.30
2017-11-27T00:40:54.518Z,2.30
2017-11-27T00:45:57.090Z,2.30
2017-11-27T00:50:59.647Z,2.30
2017-11-27T00:56:02.209Z,2.30
2017-11-27T01:01:04.761Z,2.30
2017-11-27T01:06:07.304Z,2.30
2017-11-27T01:11:09.864Z,2.30
2017-11-27T01:16:12.438Z,2.30
2017-11-27T01:21:15.049Z,2.30
2017-11-27T01:26:18.401Z,2.40
2017-11-27T01:31:20.965Z,2.30
2017-11-27T01:36:23.561Z,2.40
2017-11-27T01:41:26.896Z,2.40
2017-11-27T01:46:29.456Z,2.30
2017-11-27T01:51:32.030Z,2.40
2017-11-27T01:56:34.591Z,2.40
2017-11-27T02:01:37.150Z,2.40
2017-11-27T02:06:39.712Z,2.40
2017-11-27T02:11:43.039Z,2.40
2017-11-27T02:16:45.592Z,2.40
2017-11-27T02:21:48.939Z,2.40
2017-11-27T02:26:51.513Z,2.40
2017-11-27T02:31:54.069Z,2.40
2017-11-27T02:36:56.618Z,2.40
2017-11-27T02:41:59.181Z,2.40
2017-11-27T02:47:01.748Z,2.40
2017-11-27T02:52:04.712Z,2.40
2017-11-27T02:57:07.249Z,2.40
2017-11-27T03:02:09.826Z,2.40
2017-11-27T03:07:12.398Z,2.40
2017-11-27T03:12:14.968Z,2.40
2017-11-27T03:17:17.535Z,2.40
2017-11-27T03:22:20.102Z,2.40
2017-11-27T03:27:23.431Z,2.40
2017-11-27T03:32:25.997Z,2.40
2017-11-27T03:37:28.563Z,2.40
2017-11-27T03:42:31.788Z,2.40
2017-11-27T03:47:34.349Z,2.40
2017-11-27T03:52:36.904Z,2.40
2017-11-27T03:57:39.443Z,2.40
2017-11-27T04:02:42.019Z,2.40
2017-11-27T04:07:44.571Z,2.40
2017-11-27T04:12:47.128Z,2.40
2017-11-27T04:17:49.704Z,2.40
2017-11-27T04:22:52.260Z,2.40
2017-11-27T04:27:54.833Z,2.40
2017-11-27T04:32:57.374Z,2.40
2017-11-27T04:37:59.937Z,2.40
2017-11-27T04:43:02.484Z,2.40
2017-11-27T04:48:05.069Z,2.40
2017-11-27T04:53:07.617Z,2.40
2017-11-27T04:58:10.939Z,2.40
2017-11-27T05:03:13.533Z,2.40
2017-11-27T05:08:16.102Z,2.40
2017-11-27T05:13:18.672Z,2.40
2017-11-27T05:18:21.223Z,2.40
2017-11-27T05:23:23.789Z,2.40
2017-11-27T05:28:26.349Z,2.40
2017-11-27T05:33:28.916Z,2.40
2017-11-27T05:38:31.719Z,2.40
2017-11-27T05:43:34.325Z,2.40
2017-11-27T05:48:37.652Z,2.40
2017-11-27T05:53:40.207Z,2.40
2017-11-27T05:58:42.761Z,2.40
2017-11-27T06:03:45.326Z,2.40
2017-11-27T06:08:47.872Z,2.40
2017-11-27T06:13:50.429Z,2.40
2017-11-27T06:18:53.758Z,2.40
2017-11-27T06:23:56.308Z,2.40
2017-11-27T06:28:58.864Z,2.40
2017-11-27T06:34:02.183Z,2.40
2017-11-27T06:39:04.764Z,2.40
2017-11-27T06:44:08.086Z,2.40
2017-11-27T06:49:10.676Z,2.40
2017-11-27T06:54:13.229Z,2.40
2017-11-27T06:59:15.833Z,2.40
2017-11-27T07:04:18.405Z,2.40
2017-11-27T07:09:21.000Z,2.40
2017-11-27T07:14:23.580Z,2.30
2017-11-27T07:19:26.131Z,2.40
2017-11-27T07:24:28.685Z,2.30
2017-11-27T07:29:31.255Z,2.30
2017-11-27T07:34:33.809Z,2.30
2017-11-27T07:39:42.129Z,2.30
2017-11-27T07:44:44.674Z,2.30
2017-11-27T07:49:47.217Z,2.30
2017-11-27T07:54:49.791Z,2.40
2017-11-27T07:59:52.348Z,2.40
2017-11-27T08:04:54.900Z,2.40
2017-11-27T08:09:58.221Z,2.50
2017-11-27T08:15:00.785Z,2.50
2017-11-27T08:20:03.348Z,2.50
2017-11-27T08:25:05.908Z,2.60
2017-11-27T08:30:08.465Z,2.80
2017-11-27T08:35:11.049Z,2.90
2017-11-27T08:40:13.623Z,3.00
2017-11-27T08:45:16.177Z,3.00
2017-11-27T08:50:18.727Z,3.10
2017-11-27T08:55:21.257Z,3.10
2017-11-27T09:00:23.837Z,3.10
2017-11-27T09:05:26.398Z,3.20
2017-11-27T09:10:29.212Z,3.40
2017-11-27T09:15:31.776Z,3.50
2017-11-27T09:20:34.320Z,3.60
2017-11-27T09:25:37.100Z,3.70
2017-11-27T09:30:39.665Z,3.90
2017-11-27T09:35:42.220Z,4.00
2017-11-27T09:40:44.761Z,4.20
2017-11-27T09:45:47.314Z,4.30
2017-11-27T09:50:50.632Z,4.60
2017-11-27T09:55:53.204Z,4.60
2017-11-27T10:00:55.752Z,4.70
2017-11-27T10:05:58.333Z,4.80
2017-11-27T10:11:00.891Z,5.00
2017-11-27T10:16:04.229Z,5.20
2017-11-27T10:21:07.556Z,5.30
2017-11-27T10:26:10.884Z,5.40
2017-11-27T10:31:13.475Z,5.40
2017-11-27T10:36:16.813Z,5.80
2017-11-27T10:41:19.389Z,5.70
2017-11-27T10:46:21.944Z,5.90
2017-11-27T10:51:24.492Z,6.00
2017-11-27T10:56:27.034Z,6.10
2017-11-27T11:01:29.571Z,6.10
2017-11-27T11:06:32.124Z,6.10
2017-11-27T11:11:34.666Z,6.10
2017-11-27T11:16:37.228Z,6.30
2017-11-27T11:21:39.772Z,6.40
2017-11-27T11:26:43.089Z,6.50
2017-11-27T11:31:45.636Z,6.50
2017-11-27T11:36:48.189Z,6.50
2017-11-27T11:41:51.512Z,6.40
2017-11-27T11:46:54.073Z,6.40
2017-11-27T11:51:56.627Z,6.30
2017-11-27T11:56:59.200Z,6.30
2017-11-27T12:02:02.574Z,6.30
2017-11-27T12:07:05.137Z,6.30
2017-11-27T12:12:07.694Z,6.30
2017-11-27T12:17:10.238Z,6.60
2017-11-27T12:22:12.809Z,6.50
2017-11-27T12:27:15.377Z,6.50
2017-11-27T12:32:17.937Z,6.50
2017-11-27T12:37:20.511Z,6.40
2017-11-27T12:42:23.085Z,6.30
2017-11-27T12:47:25.641Z,6.20
2017-11-27T12:57:33.362Z,6.20
2017-11-27T13:02:35.909Z,6.20
2017-11-27T13:07:38.498Z,6.20
2017-11-27T13:12:41.037Z,6.10
2017-11-27T13:17:43.578Z,6.10
2017-11-27T13:22:46.120Z,6.10
2017-11-27T13:27:48.672Z,6.00
2017-11-27T13:32:51.211Z,6.00
2017-11-27T13:37:53.791Z,6.00
2017-11-27T13:42:56.342Z,5.90
2017-11-27T13:47:59.674Z,5.90
2017-11-27T13:53:02.226Z,5.90
2017-11-27T13:58:04.777Z,5.90
2017-11-27T15:03:18.434Z,5.30
2017-11-27T15:08:21.022Z,5.30
2017-11-27T15:13:23.657Z,5.20
2017-11-27T15:18:26.263Z,5.20
2017-11-27T15:23:28.832Z,5.20
2017-11-27T15:28:31.411Z,5.10
2017-11-27T15:33:34.782Z,5.10
2017-11-27T15:38:37.345Z,5.10
2017-11-27T15:43:39.952Z,5.00
2017-11-27T15:48:42.563Z,5.00
2017-11-27T15:53:45.161Z,4.90
2017-11-27T15:58:47.764Z,4.90
2017-11-27T16:03:50.371Z,4.90
2017-11-27T16:08:52.955Z,4.80
2017-11-27T16:13:55.604Z,4.80
2017-11-27T16:18:58.207Z,4.80
2017-11-27T16:24:00.850Z,4.70
2017-11-27T16:29:03.478Z,4.70
2017-11-27T16:34:06.080Z,4.60
2017-11-27T16:39:08.684Z,4.60
2017-11-27T16:44:11.333Z,4.50
2017-11-27T16:49:13.866Z,4.50
2017-11-27T16:54:16.440Z,4.50
2017-11-27T16:59:19.041Z,4.50
2017-11-27T17:04:21.600Z,4.50
2017-11-27T17:09:24.927Z,4.40
2017-11-27T17:14:28.469Z,4.40
2017-11-27T17:19:31.017Z,4.40
2017-11-27T17:24:33.755Z,4.40
2017-11-27T17:29:36.365Z,4.30
2017-11-27T17:34:38.918Z,4.30
2017-11-27T17:39:41.511Z,4.30
2017-11-27T17:44:44.119Z,4.30
2017-11-27T17:49:46.680Z,4.20
2017-11-27T17:54:49.238Z,4.20
2017-11-27T17:59:51.798Z,4.20
2017-11-27T18:04:54.371Z,4.10
2017-11-27T18:09:56.956Z,4.10
2017-11-27T18:14:59.495Z,4.10
2017-11-27T18:20:02.071Z,4.10
2017-11-27T18:25:04.634Z,4.10
2017-11-27T18:30:07.180Z,4.10
2017-11-27T18:35:09.731Z,4.10
2017-11-27T18:40:13.015Z,4.10
2017-11-27T18:45:15.560Z,4.10
2017-11-27T18:50:18.116Z,4.10
2017-11-27T18:55:20.673Z,4.10
2017-11-27T19:00:23.239Z,4.10
2017-11-27T19:05:26.572Z,4.10
2017-11-27T19:10:29.898Z,4.10
2017-11-27T19:15:32.416Z,4.10
2017-11-27T19:20:34.984Z,4.10
2017-11-27T19:25:37.543Z,4.10
2017-11-27T19:30:44.009Z,4.10
2017-11-27T19:35:46.569Z,4.20
2017-11-27T19:40:49.893Z,4.10
2017-11-27T19:45:52.489Z,4.10
2017-11-27T19:50:55.032Z,4.10
2017-11-27T19:55:57.595Z,4.10
2017-11-27T20:01:00.149Z,4.10
2017-11-27T20:06:02.707Z,4.10
2017-11-27T20:11:06.161Z,4.10
2017-11-27T20:16:08.721Z,4.10
2017-11-27T20:21:11.276Z,4.10
2017-11-27T20:26:13.831Z,4.10
2017-11-27T20:31:16.404Z,4.10
2017-11-27T20:36:18.983Z,4.00
2017-11-27T20:41:22.341Z,4.00
2017-11-27T20:46:25.677Z,4.00
2017-11-27T20:51:28.361Z,4.00
2017-11-27T20:56:33.903Z,4.00
2017-11-27T21:06:46.022Z,4.00
2017-11-27T21:11:50.665Z,4.00
2017-11-27T21:16:53.935Z,4.00
2017-11-27T21:21:57.731Z,4.00
2017-11-27T21:27:00.479Z,4.00
2017-11-27T21:32:03.964Z,4.00
2017-11-27T21:37:07.800Z,4.00
2017-11-27T21:42:10.735Z,4.00
2017-11-27T21:47:13.590Z,3.90
2017-11-27T21:52:17.092Z,3.90
2017-11-27T21:57:19.915Z,4.00
2017-11-27T22:02:23.494Z,3.90
2017-11-27T22:07:26.291Z,3.90
2017-11-27T22:12:29.810Z,3.90
2017-11-27T22:17:33.106Z,3.90
2017-11-27T22:22:36.133Z,3.90
2017-11-27T22:27:39.803Z,3.90
2017-11-27T22:32:43.340Z,3.90
2017-11-27T22:37:46.722Z,3.90
2017-11-27T22:42:50.333Z,3.90
2017-11-27T22:47:53.556Z,3.90
2017-11-27T22:52:56.767Z,3.90
2017-11-27T22:57:59.707Z,3.90
2017-11-27T23:03:02.607Z,3.90
2017-11-27T23:08:06.310Z,3.90
2017-11-27T23:13:09.208Z,3.90
2017-11-27T23:18:12.075Z,3.90
2017-11-27T23:23:17.871Z,3.90
2017-11-27T23:28:20.830Z,3.80
2017-11-27T23:33:23.507Z,3.80
2017-11-27T23:38:27.327Z,3.80
2017-11-27T23:43:30.112Z,3.80
2017-11-27T23:48:33.140Z,3.80
2017-11-27T23:53:35.873Z,3.80
2017-11-27T23:58:38.801Z,3.80
